sensor_id;sensor_type;location;lat;lon;timestamp;P1;durP1;ratioP1;P2;durP2;ratioP2
81364;SDS011;70821;53.016;9.010;2023-07-20T00:01:43;1.50;;;0.70;;
81364;SDS011;70821;53.016;9.010;2023-07-20T00:04:08;2.35;;;0.85;;
81364;SDS011;70821;53.016;9.010;2023-07-20T00:06:33;1.27;;;0.70;;
81364;SDS011;70821;53.016;9.010;2023-07-20T00:08:58;1.30;;;0.80;;
81364;SDS011;70821;53.016;9.010;2023-07-20T00:11:25;1.08;;;0.68;;
81364;SDS011;70821;53.016;9.010;2023-07-20T00:13:50;1.80;;;0.75;;
81364;SDS011;70821;53.016;9.010;2023-07-20T00:16:15;1.08;;;0.60;;
81364;SDS011;70821;53.016;9.010;2023-07-20T00:18:40;0.50;;;0.50;;
81364;SDS011;70821;53.016;9.010;2023-07-20T00:21:05;0.90;;;0.60;;
81364;SDS011;70821;53.016;9.010;2023-07-20T00:23:30;0.77;;;0.60;;
81364;SDS011;70821;53.016;9.010;2023-07-20T00:25:55;1.08;;;0.73;;
81364;SDS011;70821;53.016;9.010;2023-07-20T00:28:20;1.23;;;0.70;;
81364;SDS011;70821;53.016;9.010;2023-07-20T00:30:46;2.67;;;0.88;;
81364;SDS011;70821;53.016;9.010;2023-07-20T00:33:11;0.90;;;0.60;;
81364;SDS011;70821;53.016;9.010;2023-07-20T00:35:37;1.42;;;0.70;;
81364;SDS011;70821;53.016;9.010;2023-07-20T00:38:02;2.97;;;0.85;;
81364;SDS011;70821;53.016;9.010;2023-07-20T00:40:27;2.72;;;0.77;;
81364;SDS011;70821;53.016;9.010;2023-07-20T00:42:52;1.40;;;0.60;;
81364;SDS011;70821;53.016;9.010;2023-07-20T00:45:17;1.10;;;0.73;;
81364;SDS011;70821;53.016;9.010;2023-07-20T00:47:42;1.00;;;0.70;;
81364;SDS011;70821;53.016;9.010;2023-07-20T00:50:07;2.40;;;0.60;;
81364;SDS011;70821;53.016;9.010;2023-07-20T00:52:34;1.30;;;0.68;;
81364;SDS011;70821;53.016;9.010;2023-07-20T00:54:59;1.53;;;0.70;;
81364;SDS011;70821;53.016;9.010;2023-07-20T00:57:24;1.63;;;0.70;;
81364;SDS011;70821;53.016;9.010;2023-07-20T00:59:49;1.95;;;0.80;;
81364;SDS011;70821;53.016;9.010;2023-07-20T01:02:14;1.33;;;0.80;;
81364;SDS011;70821;53.016;9.010;2023-07-20T01:04:39;1.40;;;0.70;;
81364;SDS011;70821;53.016;9.010;2023-07-20T01:09:47;1.17;;;0.80;;
81364;SDS011;70821;53.016;9.010;2023-07-20T01:12:15;1.20;;;0.85;;
81364;SDS011;70821;53.016;9.010;2023-07-20T01:14:43;2.65;;;0.75;;
81364;SDS011;70821;53.016;9.010;2023-07-20T01:17:08;0.90;;;0.53;;
81364;SDS011;70821;53.016;9.010;2023-07-20T01:19:33;1.27;;;0.57;;
81364;SDS011;70821;53.016;9.010;2023-07-20T01:24:32;1.83;;;0.63;;
81364;SDS011;70821;53.016;9.010;2023-07-20T01:27:22;3.05;;;0.75;;
81364;SDS011;70821;53.016;9.010;2023-07-20T01:32:32;2.45;;;0.70;;
81364;SDS011;70821;53.016;9.010;2023-07-20T01:34:58;3.67;;;0.80;;
81364;SDS011;70821;53.016;9.010;2023-07-20T01:37:24;1.30;;;0.80;;
81364;SDS011;70821;53.016;9.010;2023-07-20T01:39:49;1.67;;;0.75;;
81364;SDS011;70821;53.016;9.010;2023-07-20T01:42:14;2.05;;;0.70;;
81364;SDS011;70821;53.016;9.010;2023-07-20T01:44:39;3.55;;;0.90;;
81364;SDS011;70821;53.016;9.010;2023-07-20T01:47:04;1.70;;;0.80;;
81364;SDS011;70821;53.016;9.010;2023-07-20T01:49:29;2.65;;;0.85;;
81364;SDS011;70821;53.016;9.010;2023-07-20T01:51:55;1.27;;;0.80;;
81364;SDS011;70821;53.016;9.010;2023-07-20T01:54:20;2.10;;;0.90;;
81364;SDS011;70821;53.016;9.010;2023-07-20T01:56:45;3.15;;;0.93;;
81364;SDS011;70821;53.016;9.010;2023-07-20T01:59:10;0.93;;;0.70;;
81364;SDS011;70821;53.016;9.010;2023-07-20T02:01:35;1.27;;;0.80;;
81364;SDS011;70821;53.016;9.010;2023-07-20T02:04:00;2.60;;;0.90;;
81364;SDS011;70821;53.016;9.010;2023-07-20T02:06:25;1.55;;;0.75;;
81364;SDS011;70821;53.016;9.010;2023-07-20T02:08:50;2.60;;;0.90;;
81364;SDS011;70821;53.016;9.010;2023-07-20T02:11:15;2.05;;;1.00;;
81364;SDS011;70821;53.016;9.010;2023-07-20T02:13:40;1.33;;;0.82;;
81364;SDS011;70821;53.016;9.010;2023-07-20T02:16:05;1.52;;;0.80;;
81364;SDS011;70821;53.016;9.010;2023-07-20T02:18:30;2.15;;;1.40;;
81364;SDS011;70821;53.016;9.010;2023-07-20T02:20:56;1.05;;;0.60;;
81364;SDS011;70821;53.016;9.010;2023-07-20T02:23:21;1.67;;;0.80;;
81364;SDS011;70821;53.016;9.010;2023-07-20T02:25:46;1.75;;;0.80;;
81364;SDS011;70821;53.016;9.010;2023-07-20T02:28:13;1.73;;;0.98;;
81364;SDS011;70821;53.016;9.010;2023-07-20T02:30:38;2.25;;;0.90;;
81364;SDS011;70821;53.016;9.010;2023-07-20T02:33:03;2.20;;;0.77;;
81364;SDS011;70821;53.016;9.010;2023-07-20T02:35:28;1.80;;;0.80;;
81364;SDS011;70821;53.016;9.010;2023-07-20T02:37:53;3.35;;;0.85;;
81364;SDS011;70821;53.016;9.010;2023-07-20T02:40:18;2.17;;;0.80;;
81364;SDS011;70821;53.016;9.010;2023-07-20T02:42:44;2.92;;;0.90;;
81364;SDS011;70821;53.016;9.010;2023-07-20T02:45:09;2.78;;;0.93;;
81364;SDS011;70821;53.016;9.010;2023-07-20T02:47:34;1.30;;;0.70;;
81364;SDS011;70821;53.016;9.010;2023-07-20T02:49:59;1.17;;;0.70;;
81364;SDS011;70821;53.016;9.010;2023-07-20T02:52:24;2.13;;;0.70;;
81364;SDS011;70821;53.016;9.010;2023-07-20T02:54:50;1.20;;;0.80;;
81364;SDS011;70821;53.016;9.010;2023-07-20T02:57:15;1.30;;;0.60;;
81364;SDS011;70821;53.016;9.010;2023-07-20T02:59:40;2.47;;;0.70;;
81364;SDS011;70821;53.016;9.010;2023-07-20T03:02:05;0.93;;;0.70;;
81364;SDS011;70821;53.016;9.010;2023-07-20T03:04:30;2.27;;;0.77;;
81364;SDS011;70821;53.016;9.010;2023-07-20T03:06:55;0.70;;;0.60;;
81364;SDS011;70821;53.016;9.010;2023-07-20T03:09:21;0.82;;;0.70;;
81364;SDS011;70821;53.016;9.010;2023-07-20T03:11:46;0.90;;;0.65;;
81364;SDS011;70821;53.016;9.010;2023-07-20T03:14:11;1.77;;;0.70;;
81364;SDS011;70821;53.016;9.010;2023-07-20T03:16:36;0.90;;;0.70;;
81364;SDS011;70821;53.016;9.010;2023-07-20T03:19:01;2.92;;;1.05;;
81364;SDS011;70821;53.016;9.010;2023-07-20T03:21:26;1.20;;;0.68;;
81364;SDS011;70821;53.016;9.010;2023-07-20T03:23:51;1.58;;;0.70;;
81364;SDS011;70821;53.016;9.010;2023-07-20T03:26:17;1.40;;;0.60;;
81364;SDS011;70821;53.016;9.010;2023-07-20T03:28:42;0.73;;;0.60;;
81364;SDS011;70821;53.016;9.010;2023-07-20T03:31:07;2.05;;;0.75;;
81364;SDS011;70821;53.016;9.010;2023-07-20T03:33:32;1.15;;;0.60;;
81364;SDS011;70821;53.016;9.010;2023-07-20T03:35:57;1.40;;;0.73;;
81364;SDS011;70821;53.016;9.010;2023-07-20T03:38:23;1.65;;;0.77;;
81364;SDS011;70821;53.016;9.010;2023-07-20T03:40:51;1.13;;;0.80;;
81364;SDS011;70821;53.016;9.010;2023-07-20T03:43:16;1.35;;;0.70;;
81364;SDS011;70821;53.016;9.010;2023-07-20T03:45:41;1.05;;;0.63;;
81364;SDS011;70821;53.016;9.010;2023-07-20T03:48:06;1.33;;;0.60;;
81364;SDS011;70821;53.016;9.010;2023-07-20T03:50:31;1.13;;;0.80;;
81364;SDS011;70821;53.016;9.010;2023-07-20T03:52:56;1.58;;;0.70;;
81364;SDS011;70821;53.016;9.010;2023-07-20T03:55:21;0.85;;;0.50;;
81364;SDS011;70821;53.016;9.010;2023-07-20T03:57:46;1.38;;;0.57;;
81364;SDS011;70821;53.016;9.010;2023-07-20T04:00:12;2.45;;;0.88;;
81364;SDS011;70821;53.016;9.010;2023-07-20T04:02:37;2.28;;;0.55;;
81364;SDS011;70821;53.016;9.010;2023-07-20T04:05:02;2.08;;;0.70;;
81364;SDS011;70821;53.016;9.010;2023-07-20T04:07:27;0.80;;;0.60;;
81364;SDS011;70821;53.016;9.010;2023-07-20T04:09:52;1.65;;;0.80;;
81364;SDS011;70821;53.016;9.010;2023-07-20T04:12:17;1.33;;;0.63;;
81364;SDS011;70821;53.016;9.010;2023-07-20T04:14:42;1.00;;;0.70;;
81364;SDS011;70821;53.016;9.010;2023-07-20T04:17:07;2.30;;;0.70;;
81364;SDS011;70821;53.016;9.010;2023-07-20T04:19:33;4.30;;;0.80;;
81364;SDS011;70821;53.016;9.010;2023-07-20T04:21:58;0.88;;;0.68;;
81364;SDS011;70821;53.016;9.010;2023-07-20T04:24:23;1.00;;;0.70;;
81364;SDS011;70821;53.016;9.010;2023-07-20T04:26:48;3.50;;;0.73;;
81364;SDS011;70821;53.016;9.010;2023-07-20T04:29:13;1.77;;;0.75;;
81364;SDS011;70821;53.016;9.010;2023-07-20T04:31:38;2.00;;;0.70;;
81364;SDS011;70821;53.016;9.010;2023-07-20T04:34:03;0.93;;;0.68;;
81364;SDS011;70821;53.016;9.010;2023-07-20T04:36:28;1.67;;;0.70;;
81364;SDS011;70821;53.016;9.010;2023-07-20T04:38:53;1.00;;;0.65;;
81364;SDS011;70821;53.016;9.010;2023-07-20T04:41:18;1.50;;;0.60;;
81364;SDS011;70821;53.016;9.010;2023-07-20T04:43:44;2.92;;;0.68;;
81364;SDS011;70821;53.016;9.010;2023-07-20T04:46:12;3.08;;;0.80;;
81364;SDS011;70821;53.016;9.010;2023-07-20T04:48:37;1.65;;;0.70;;
81364;SDS011;70821;53.016;9.010;2023-07-20T04:51:02;3.08;;;0.90;;
81364;SDS011;70821;53.016;9.010;2023-07-20T04:53:27;1.63;;;0.77;;
81364;SDS011;70821;53.016;9.010;2023-07-20T04:55:52;1.95;;;0.80;;
81364;SDS011;70821;53.016;9.010;2023-07-20T04:58:18;2.45;;;0.90;;
81364;SDS011;70821;53.016;9.010;2023-07-20T05:00:43;2.95;;;1.00;;
81364;SDS011;70821;53.016;9.010;2023-07-20T05:03:09;1.87;;;0.90;;
81364;SDS011;70821;53.016;9.010;2023-07-20T05:05:34;2.80;;;0.80;;
81364;SDS011;70821;53.016;9.010;2023-07-20T05:07:59;2.72;;;0.80;;
81364;SDS011;70821;53.016;9.010;2023-07-20T05:10:24;3.03;;;1.00;;
81364;SDS011;70821;53.016;9.010;2023-07-20T05:12:49;1.67;;;0.95;;
81364;SDS011;70821;53.016;9.010;2023-07-20T05:15:14;3.10;;;0.80;;
81364;SDS011;70821;53.016;9.010;2023-07-20T05:17:39;1.60;;;0.90;;
81364;SDS011;70821;53.016;9.010;2023-07-20T05:20:04;2.38;;;0.80;;
81364;SDS011;70821;53.016;9.010;2023-07-20T05:22:30;1.92;;;0.80;;
81364;SDS011;70821;53.016;9.010;2023-07-20T05:24:55;1.48;;;0.80;;
81364;SDS011;70821;53.016;9.010;2023-07-20T05:27:20;2.30;;;0.70;;
81364;SDS011;70821;53.016;9.010;2023-07-20T05:29:45;4.37;;;1.00;;
81364;SDS011;70821;53.016;9.010;2023-07-20T05:32:10;2.05;;;0.90;;
81364;SDS011;70821;53.016;9.010;2023-07-20T05:34:35;1.10;;;0.80;;
81364;SDS011;70821;53.016;9.010;2023-07-20T05:37:01;2.10;;;0.80;;
81364;SDS011;70821;53.016;9.010;2023-07-20T05:39:26;1.90;;;0.80;;
81364;SDS011;70821;53.016;9.010;2023-07-20T05:41:51;1.38;;;0.77;;
81364;SDS011;70821;53.016;9.010;2023-07-20T05:44:16;1.85;;;0.80;;
81364;SDS011;70821;53.016;9.010;2023-07-20T05:46:41;2.53;;;0.93;;
81364;SDS011;70821;53.016;9.010;2023-07-20T05:49:06;1.23;;;0.70;;
81364;SDS011;70821;53.016;9.010;2023-07-20T05:51:31;3.10;;;0.80;;
81364;SDS011;70821;53.016;9.010;2023-07-20T05:53:56;1.13;;;0.80;;
81364;SDS011;70821;53.016;9.010;2023-07-20T05:56:21;1.75;;;0.80;;
81364;SDS011;70821;53.016;9.010;2023-07-20T05:58:46;1.70;;;0.70;;
81364;SDS011;70821;53.016;9.010;2023-07-20T06:01:11;1.33;;;0.88;;
81364;SDS011;70821;53.016;9.010;2023-07-20T06:03:37;1.00;;;0.75;;
81364;SDS011;70821;53.016;9.010;2023-07-20T06:06:02;3.22;;;0.80;;
81364;SDS011;70821;53.016;9.010;2023-07-20T06:08:30;1.20;;;0.70;;
81364;SDS011;70821;53.016;9.010;2023-07-20T06:10:55;1.88;;;0.88;;
81364;SDS011;70821;53.016;9.010;2023-07-20T06:13:20;1.60;;;0.70;;
81364;SDS011;70821;53.016;9.010;2023-07-20T06:15:45;1.67;;;0.80;;
81364;SDS011;70821;53.016;9.010;2023-07-20T06:18:10;1.65;;;0.90;;
81364;SDS011;70821;53.016;9.010;2023-07-20T06:20:35;2.78;;;0.98;;
81364;SDS011;70821;53.016;9.010;2023-07-20T06:23:00;2.33;;;0.80;;
81364;SDS011;70821;53.016;9.010;2023-07-20T06:25:25;1.67;;;0.90;;
81364;SDS011;70821;53.016;9.010;2023-07-20T06:27:51;2.53;;;0.93;;
81364;SDS011;70821;53.016;9.010;2023-07-20T06:30:16;1.40;;;0.73;;
81364;SDS011;70821;53.016;9.010;2023-07-20T06:32:41;1.65;;;0.90;;
81364;SDS011;70821;53.016;9.010;2023-07-20T06:35:06;2.40;;;0.95;;
81364;SDS011;70821;53.016;9.010;2023-07-20T06:37:31;3.20;;;1.10;;
81364;SDS011;70821;53.016;9.010;2023-07-20T06:39:56;3.33;;;0.80;;
81364;SDS011;70821;53.016;9.010;2023-07-20T06:42:21;1.90;;;0.80;;
81364;SDS011;70821;53.016;9.010;2023-07-20T06:44:46;3.45;;;0.77;;
81364;SDS011;70821;53.016;9.010;2023-07-20T06:47:12;2.22;;;1.00;;
81364;SDS011;70821;53.016;9.010;2023-07-20T06:49:37;5.03;;;1.80;;
81364;SDS011;70821;53.016;9.010;2023-07-20T06:52:02;4.63;;;1.23;;
81364;SDS011;70821;53.016;9.010;2023-07-20T06:54:27;2.00;;;0.80;;
81364;SDS011;70821;53.016;9.010;2023-07-20T06:56:52;2.70;;;1.20;;
81364;SDS011;70821;53.016;9.010;2023-07-20T06:59:17;3.63;;;1.20;;
81364;SDS011;70821;53.016;9.010;2023-07-20T07:01:42;4.28;;;1.17;;
81364;SDS011;70821;53.016;9.010;2023-07-20T07:04:07;5.68;;;1.17;;
81364;SDS011;70821;53.016;9.010;2023-07-20T07:06:33;4.93;;;1.13;;
81364;SDS011;70821;53.016;9.010;2023-07-20T07:08:58;3.65;;;1.10;;
81364;SDS011;70821;53.016;9.010;2023-07-20T07:11:23;5.67;;;1.30;;
81364;SDS011;70821;53.016;9.010;2023-07-20T07:13:48;3.42;;;1.13;;
81364;SDS011;70821;53.016;9.010;2023-07-20T07:16:13;2.90;;;1.25;;
81364;SDS011;70821;53.016;9.010;2023-07-20T07:18:38;4.10;;;1.20;;
81364;SDS011;70821;53.016;9.010;2023-07-20T07:21:03;2.40;;;1.00;;
81364;SDS011;70821;53.016;9.010;2023-07-20T07:23:28;2.35;;;1.00;;
81364;SDS011;70821;53.016;9.010;2023-07-20T07:25:54;6.40;;;1.10;;
81364;SDS011;70821;53.016;9.010;2023-07-20T07:28:19;5.13;;;1.00;;
81364;SDS011;70821;53.016;9.010;2023-07-20T07:30:44;2.88;;;1.10;;
81364;SDS011;70821;53.016;9.010;2023-07-20T07:33:09;4.38;;;1.15;;
81364;SDS011;70821;53.016;9.010;2023-07-20T07:35:34;4.68;;;1.10;;
81364;SDS011;70821;53.016;9.010;2023-07-20T07:37:59;2.25;;;1.10;;
81364;SDS011;70821;53.016;9.010;2023-07-20T07:40:24;3.40;;;1.08;;
81364;SDS011;70821;53.016;9.010;2023-07-20T07:42:49;2.45;;;1.00;;
81364;SDS011;70821;53.016;9.010;2023-07-20T07:45:14;4.47;;;1.00;;
81364;SDS011;70821;53.016;9.010;2023-07-20T07:47:39;2.47;;;1.00;;
81364;SDS011;70821;53.016;9.010;2023-07-20T07:50:05;2.17;;;0.70;;
81364;SDS011;70821;53.016;9.010;2023-07-20T07:52:30;4.47;;;1.15;;
81364;SDS011;70821;53.016;9.010;2023-07-20T07:54:55;2.38;;;1.00;;
81364;SDS011;70821;53.016;9.010;2023-07-20T07:57:20;1.75;;;0.90;;
81364;SDS011;70821;53.016;9.010;2023-07-20T07:59:45;4.05;;;1.23;;
81364;SDS011;70821;53.016;9.010;2023-07-20T08:02:10;2.20;;;1.00;;
81364;SDS011;70821;53.016;9.010;2023-07-20T08:04:35;3.00;;;1.20;;
81364;SDS011;70821;53.016;9.010;2023-07-20T08:07:04;2.33;;;0.90;;
81364;SDS011;70821;53.016;9.010;2023-07-20T08:09:29;2.00;;;0.80;;
81364;SDS011;70821;53.016;9.010;2023-07-20T08:11:54;4.00;;;1.00;;
81364;SDS011;70821;53.016;9.010;2023-07-20T08:14:19;4.38;;;1.10;;
81364;SDS011;70821;53.016;9.010;2023-07-20T08:16:44;5.95;;;1.10;;
81364;SDS011;70821;53.016;9.010;2023-07-20T08:19:09;4.15;;;1.25;;
81364;SDS011;70821;53.016;9.010;2023-07-20T08:21:35;6.47;;;1.00;;
81364;SDS011;70821;53.016;9.010;2023-07-20T08:24:00;4.95;;;1.20;;
81364;SDS011;70821;53.016;9.010;2023-07-20T08:26:25;7.88;;;1.30;;
81364;SDS011;70821;53.016;9.010;2023-07-20T08:28:50;2.95;;;1.00;;
81364;SDS011;70821;53.016;9.010;2023-07-20T08:31:15;2.45;;;1.10;;
81364;SDS011;70821;53.016;9.010;2023-07-20T08:33:40;3.50;;;1.00;;
81364;SDS011;70821;53.016;9.010;2023-07-20T08:36:05;3.95;;;1.10;;
81364;SDS011;70821;53.016;9.010;2023-07-20T08:38:30;4.82;;;1.20;;
81364;SDS011;70821;53.016;9.010;2023-07-20T08:40:55;3.30;;;1.15;;
81364;SDS011;70821;53.016;9.010;2023-07-20T08:43:20;2.83;;;1.00;;
81364;SDS011;70821;53.016;9.010;2023-07-20T08:45:47;5.03;;;1.10;;
81364;SDS011;70821;53.016;9.010;2023-07-20T08:48:13;4.40;;;1.00;;
81364;SDS011;70821;53.016;9.010;2023-07-20T08:50:39;5.10;;;1.02;;
81364;SDS011;70821;53.016;9.010;2023-07-20T08:53:04;3.70;;;1.20;;
81364;SDS011;70821;53.016;9.010;2023-07-20T08:55:30;2.90;;;1.10;;
81364;SDS011;70821;53.016;9.010;2023-07-20T08:57:56;4.10;;;1.10;;
81364;SDS011;70821;53.016;9.010;2023-07-20T09:00:21;3.08;;;1.20;;
81364;SDS011;70821;53.016;9.010;2023-07-20T09:02:48;3.35;;;1.10;;
81364;SDS011;70821;53.016;9.010;2023-07-20T09:05:14;2.28;;;0.90;;
81364;SDS011;70821;53.016;9.010;2023-07-20T09:07:39;3.20;;;1.10;;
81364;SDS011;70821;53.016;9.010;2023-07-20T09:10:05;2.10;;;0.90;;
81364;SDS011;70821;53.016;9.010;2023-07-20T09:12:30;3.05;;;1.13;;
81364;SDS011;70821;53.016;9.010;2023-07-20T09:14:57;3.20;;;1.30;;
81364;SDS011;70821;53.016;9.010;2023-07-20T09:17:22;2.25;;;1.20;;
81364;SDS011;70821;53.016;9.010;2023-07-20T09:19:50;6.00;;;1.45;;
81364;SDS011;70821;53.016;9.010;2023-07-20T09:22:15;5.70;;;1.30;;
81364;SDS011;70821;53.016;9.010;2023-07-20T09:24:40;2.60;;;1.40;;
81364;SDS011;70821;53.016;9.010;2023-07-20T09:27:05;2.87;;;1.20;;
81364;SDS011;70821;53.016;9.010;2023-07-20T09:29:30;3.33;;;1.27;;
81364;SDS011;70821;53.016;9.010;2023-07-20T09:32:05;3.22;;;1.20;;
81364;SDS011;70821;53.016;9.010;2023-07-20T09:34:30;2.33;;;1.17;;
81364;SDS011;70821;53.016;9.010;2023-07-20T09:36:55;3.40;;;1.20;;
81364;SDS011;70821;53.016;9.010;2023-07-20T09:39:20;3.47;;;1.20;;
81364;SDS011;70821;53.016;9.010;2023-07-20T09:41:45;3.00;;;1.20;;
81364;SDS011;70821;53.016;9.010;2023-07-20T09:44:10;5.45;;;1.25;;
81364;SDS011;70821;53.016;9.010;2023-07-20T09:46:48;3.78;;;1.20;;
81364;SDS011;70821;53.016;9.010;2023-07-20T09:49:14;4.93;;;1.50;;
81364;SDS011;70821;53.016;9.010;2023-07-20T09:51:39;4.15;;;1.30;;
81364;SDS011;70821;53.016;9.010;2023-07-20T09:54:04;3.28;;;1.40;;
81364;SDS011;70821;53.016;9.010;2023-07-20T09:56:30;3.10;;;1.30;;
81364;SDS011;70821;53.016;9.010;2023-07-20T09:58:56;2.53;;;1.30;;
81364;SDS011;70821;53.016;9.010;2023-07-20T10:01:21;6.38;;;1.30;;
81364;SDS011;70821;53.016;9.010;2023-07-20T10:03:46;5.53;;;1.97;;
81364;SDS011;70821;53.016;9.010;2023-07-20T10:06:12;3.72;;;1.00;;
81364;SDS011;70821;53.016;9.010;2023-07-20T10:08:39;4.07;;;1.35;;
81364;SDS011;70821;53.016;9.010;2023-07-20T10:11:05;3.65;;;1.30;;
81364;SDS011;70821;53.016;9.010;2023-07-20T10:13:32;2.17;;;1.10;;
81364;SDS011;70821;53.016;9.010;2023-07-20T10:21:18;5.18;;;1.45;;
81364;SDS011;70821;53.016;9.010;2023-07-20T10:23:44;8.50;;;1.30;;
81364;SDS011;70821;53.016;9.010;2023-07-20T10:26:10;7.68;;;1.55;;
81364;SDS011;70821;53.016;9.010;2023-07-20T10:28:36;5.35;;;1.50;;
81364;SDS011;70821;53.016;9.010;2023-07-20T10:31:01;6.07;;;1.60;;
81364;SDS011;70821;53.016;9.010;2023-07-20T10:33:26;5.95;;;1.42;;
81364;SDS011;70821;53.016;9.010;2023-07-20T10:35:55;6.23;;;1.57;;
81364;SDS011;70821;53.016;9.010;2023-07-20T10:38:20;7.15;;;1.58;;
81364;SDS011;70821;53.016;9.010;2023-07-20T10:41:02;7.82;;;1.58;;
81364;SDS011;70821;53.016;9.010;2023-07-20T10:43:27;5.57;;;1.92;;
81364;SDS011;70821;53.016;9.010;2023-07-20T10:45:52;8.63;;;1.67;;
81364;SDS011;70821;53.016;9.010;2023-07-20T10:48:18;4.95;;;1.50;;
81364;SDS011;70821;53.016;9.010;2023-07-20T10:50:44;6.45;;;1.70;;
81364;SDS011;70821;53.016;9.010;2023-07-20T10:53:12;9.13;;;1.60;;
81364;SDS011;70821;53.016;9.010;2023-07-20T10:55:38;6.25;;;1.60;;
81364;SDS011;70821;53.016;9.010;2023-07-20T10:58:10;8.75;;;1.60;;
81364;SDS011;70821;53.016;9.010;2023-07-20T11:00:36;7.28;;;1.30;;
81364;SDS011;70821;53.016;9.010;2023-07-20T11:03:01;5.70;;;1.63;;
81364;SDS011;70821;53.016;9.010;2023-07-20T11:05:36;6.85;;;1.65;;
81364;SDS011;70821;53.016;9.010;2023-07-20T11:08:05;7.85;;;1.40;;
81364;SDS011;70821;53.016;9.010;2023-07-20T11:10:30;5.85;;;1.60;;
81364;SDS011;70821;53.016;9.010;2023-07-20T11:15:44;4.70;;;1.50;;
81364;SDS011;70821;53.016;9.010;2023-07-20T11:18:11;6.38;;;1.40;;
81364;SDS011;70821;53.016;9.010;2023-07-20T11:20:36;4.60;;;1.83;;
81364;SDS011;70821;53.016;9.010;2023-07-20T11:23:01;6.53;;;1.50;;
81364;SDS011;70821;53.016;9.010;2023-07-20T11:25:35;4.90;;;1.50;;
81364;SDS011;70821;53.016;9.010;2023-07-20T11:28:00;16.00;;;2.30;;
81364;SDS011;70821;53.016;9.010;2023-07-20T11:30:25;51.95;;;3.90;;
81364;SDS011;70821;53.016;9.010;2023-07-20T11:32:50;27.52;;;2.88;;
81364;SDS011;70821;53.016;9.010;2023-07-20T11:35:15;27.33;;;2.88;;
81364;SDS011;70821;53.016;9.010;2023-07-20T11:37:40;22.92;;;2.47;;
81364;SDS011;70821;53.016;9.010;2023-07-20T11:40:06;12.77;;;2.10;;
81364;SDS011;70821;53.016;9.010;2023-07-20T11:42:32;11.07;;;1.73;;
81364;SDS011;70821;53.016;9.010;2023-07-20T11:44:57;13.68;;;2.50;;
81364;SDS011;70821;53.016;9.010;2023-07-20T11:47:22;14.45;;;1.90;;
81364;SDS011;70821;53.016;9.010;2023-07-20T11:49:53;11.45;;;1.85;;
81364;SDS011;70821;53.016;9.010;2023-07-20T11:52:18;11.43;;;1.73;;
81364;SDS011;70821;53.016;9.010;2023-07-20T11:54:44;8.98;;;1.60;;
81364;SDS011;70821;53.016;9.010;2023-07-20T11:57:16;8.18;;;1.55;;
81364;SDS011;70821;53.016;9.010;2023-07-20T11:59:52;7.18;;;1.55;;
81364;SDS011;70821;53.016;9.010;2023-07-20T12:02:17;10.85;;;1.50;;
81364;SDS011;70821;53.016;9.010;2023-07-20T12:04:42;7.53;;;1.50;;
81364;SDS011;70821;53.016;9.010;2023-07-20T12:07:07;7.40;;;1.58;;
81364;SDS011;70821;53.016;9.010;2023-07-20T12:09:32;8.02;;;1.80;;
81364;SDS011;70821;53.016;9.010;2023-07-20T12:11:57;5.88;;;1.48;;
81364;SDS011;70821;53.016;9.010;2023-07-20T12:14:25;9.73;;;1.85;;
81364;SDS011;70821;53.016;9.010;2023-07-20T12:16:53;5.45;;;1.35;;
81364;SDS011;70821;53.016;9.010;2023-07-20T12:19:18;8.50;;;1.52;;
81364;SDS011;70821;53.016;9.010;2023-07-20T12:21:43;6.78;;;1.40;;
81364;SDS011;70821;53.016;9.010;2023-07-20T12:24:08;6.30;;;1.50;;
81364;SDS011;70821;53.016;9.010;2023-07-20T12:26:35;7.03;;;1.50;;
81364;SDS011;70821;53.016;9.010;2023-07-20T12:29:00;5.35;;;1.52;;
81364;SDS011;70821;53.016;9.010;2023-07-20T12:31:25;4.90;;;1.30;;
81364;SDS011;70821;53.016;9.010;2023-07-20T12:33:51;5.53;;;1.42;;
81364;SDS011;70821;53.016;9.010;2023-07-20T12:36:16;6.95;;;1.50;;
81364;SDS011;70821;53.016;9.010;2023-07-20T12:38:41;5.15;;;1.42;;
81364;SDS011;70821;53.016;9.010;2023-07-20T12:41:06;5.45;;;1.38;;
81364;SDS011;70821;53.016;9.010;2023-07-20T12:43:32;5.75;;;1.50;;
81364;SDS011;70821;53.016;9.010;2023-07-20T12:45:57;6.97;;;1.50;;
81364;SDS011;70821;53.016;9.010;2023-07-20T12:48:22;6.75;;;1.40;;
81364;SDS011;70821;53.016;9.010;2023-07-20T12:50:47;6.18;;;1.48;;
81364;SDS011;70821;53.016;9.010;2023-07-20T12:53:12;4.40;;;1.60;;
81364;SDS011;70821;53.016;9.010;2023-07-20T12:55:38;9.85;;;1.58;;
81364;SDS011;70821;53.016;9.010;2023-07-20T12:58:03;4.05;;;1.58;;
81364;SDS011;70821;53.016;9.010;2023-07-20T13:00:28;5.03;;;1.48;;
81364;SDS011;70821;53.016;9.010;2023-07-20T13:02:53;4.15;;;1.35;;
81364;SDS011;70821;53.016;9.010;2023-07-20T13:05:18;7.00;;;1.42;;
81364;SDS011;70821;53.016;9.010;2023-07-20T13:07:44;7.03;;;1.40;;
81364;SDS011;70821;53.016;9.010;2023-07-20T13:10:09;3.58;;;1.20;;
81364;SDS011;70821;53.016;9.010;2023-07-20T13:12:35;5.53;;;1.50;;
81364;SDS011;70821;53.016;9.010;2023-07-20T13:15:00;3.10;;;1.30;;
81364;SDS011;70821;53.016;9.010;2023-07-20T13:17:26;5.07;;;1.42;;
81364;SDS011;70821;53.016;9.010;2023-07-20T13:19:52;6.03;;;1.52;;
81364;SDS011;70821;53.016;9.010;2023-07-20T13:22:17;3.88;;;1.20;;
81364;SDS011;70821;53.016;9.010;2023-07-20T13:24:44;4.07;;;1.30;;
81364;SDS011;70821;53.016;9.010;2023-07-20T13:27:09;2.95;;;1.50;;
81364;SDS011;70821;53.016;9.010;2023-07-20T13:29:34;2.67;;;1.35;;
81364;SDS011;70821;53.016;9.010;2023-07-20T13:31:59;4.85;;;1.20;;
81364;SDS011;70821;53.016;9.010;2023-07-20T13:34:25;8.77;;;1.60;;
81364;SDS011;70821;53.016;9.010;2023-07-20T13:36:50;4.95;;;1.55;;
81364;SDS011;70821;53.016;9.010;2023-07-20T13:39:15;5.20;;;1.30;;
81364;SDS011;70821;53.016;9.010;2023-07-20T13:41:40;6.35;;;1.50;;
81364;SDS011;70821;53.016;9.010;2023-07-20T13:44:06;6.35;;;1.52;;
81364;SDS011;70821;53.016;9.010;2023-07-20T13:46:31;4.03;;;1.42;;
81364;SDS011;70821;53.016;9.010;2023-07-20T13:48:56;7.40;;;1.38;;
81364;SDS011;70821;53.016;9.010;2023-07-20T13:51:21;4.85;;;1.35;;
81364;SDS011;70821;53.016;9.010;2023-07-20T13:53:47;5.90;;;1.40;;
81364;SDS011;70821;53.016;9.010;2023-07-20T13:56:12;5.63;;;1.60;;
81364;SDS011;70821;53.016;9.010;2023-07-20T13:58:37;6.37;;;1.63;;
81364;SDS011;70821;53.016;9.010;2023-07-20T14:01:03;5.82;;;1.45;;
81364;SDS011;70821;53.016;9.010;2023-07-20T14:03:28;4.25;;;1.30;;
81364;SDS011;70821;53.016;9.010;2023-07-20T14:05:53;4.57;;;1.35;;
81364;SDS011;70821;53.016;9.010;2023-07-20T14:08:18;5.78;;;1.40;;
81364;SDS011;70821;53.016;9.010;2023-07-20T14:10:43;2.55;;;1.10;;
81364;SDS011;70821;53.016;9.010;2023-07-20T14:13:08;2.28;;;0.95;;
81364;SDS011;70821;53.016;9.010;2023-07-20T14:15:34;3.92;;;1.40;;
81364;SDS011;70821;53.016;9.010;2023-07-20T14:18:00;5.43;;;1.33;;
81364;SDS011;70821;53.016;9.010;2023-07-20T14:20:25;5.43;;;1.13;;
81364;SDS011;70821;53.016;9.010;2023-07-20T14:22:50;3.42;;;1.20;;
81364;SDS011;70821;53.016;9.010;2023-07-20T14:25:15;3.70;;;1.27;;
81364;SDS011;70821;53.016;9.010;2023-07-20T14:27:40;3.30;;;1.17;;
81364;SDS011;70821;53.016;9.010;2023-07-20T14:30:05;3.45;;;1.20;;
81364;SDS011;70821;53.016;9.010;2023-07-20T14:32:31;2.67;;;1.08;;
81364;SDS011;70821;53.016;9.010;2023-07-20T14:34:56;3.40;;;1.20;;
81364;SDS011;70821;53.016;9.010;2023-07-20T14:37:21;2.70;;;1.15;;
81364;SDS011;70821;53.016;9.010;2023-07-20T14:39:46;5.47;;;1.20;;
81364;SDS011;70821;53.016;9.010;2023-07-20T14:42:11;3.65;;;1.10;;
81364;SDS011;70821;53.016;9.010;2023-07-20T14:44:36;3.15;;;1.30;;
81364;SDS011;70821;53.016;9.010;2023-07-20T14:47:01;2.05;;;0.98;;
81364;SDS011;70821;53.016;9.010;2023-07-20T14:49:26;3.08;;;1.30;;
81364;SDS011;70821;53.016;9.010;2023-07-20T14:51:51;3.33;;;1.15;;
81364;SDS011;70821;53.016;9.010;2023-07-20T14:54:16;2.95;;;1.15;;